Terminal Aerodrome Forecast
Issued by NWS Detroit/Pontiac, MI

Home | Current Version | Previous Version | Text Only | Print | Product List | Glossary On
Versions: 1 2 3 4 5 6 7 8 9 10 11 12 13
000
FTUS43 KDTX 181310 AAA
TAFFNT
TAF AMD
KFNT 181310Z 1813/1912 35010KT P6SM SCT090
     FM181700 04014G19KT P6SM SKC
     FM190100 06008KT P6SM SKC=

USA.gov is the U.S. government's official web portal to all federal, state and local government web resources and services.